Time;durP1;ratioP1;P1;durP2;ratioP2;P2;SDS_P1;SDS_P2;PMS_P1;PMS_P2;Temp;Humidity;BMP_temperature;BMP_pressure;BME280_temperature;BME280_humidity;BME280_pressure;Samples;Min_cycle;Max_cycle;Signal;HPM_P1;HPM_P2
2024/01/26 00:00:20;;;;;;;3.30;1.60;;;;;;;;;;10139987;29;20049;-76
2024/01/26 00:05:23;;;;;;;2.30;1.50;;;;;;;;;;10144804;29;20083;-76
2024/01/26 00:10:27;;;;;;;1.40;0.90;;;;;;;;;;10149251;29;20111;-76
2024/01/26 00:15:31;;;;;;;1.10;0.85;;;;;;;;;;10150924;29;20076;-76
2024/01/26 00:20:35;;;;;;;3.05;1.00;;;;;;;;;;10151773;29;20464;-76
2024/01/26 00:25:38;;;;;;;2.17;1.20;;;;;;;;;;10146794;29;20064;-76
2024/01/26 00:30:43;;;;;;;1.30;0.90;;;;;;;;;;10146493;29;20292;-76
2024/01/26 00:35:46;;;;;;;1.60;0.88;;;;;;;;;;10148984;29;20717;-77
2024/01/26 00:40:50;;;;;;;0.90;0.82;;;;;;;;;;10144644;29;20080;-76
2024/01/26 00:45:55;;;;;;;2.42;1.10;;;;;;;;;;10156983;29;20060;-76
2024/01/26 00:50:58;;;;;;;1.13;1.00;;;;;;;;;;10151023;29;20064;-76
2024/01/26 00:56:02;;;;;;;1.90;1.00;;;;;;;;;;10160986;29;20448;-76
2024/01/26 01:01:06;;;;;;;1.70;0.90;;;;;;;;;;10157473;29;20064;-76
2024/01/26 01:06:11;;;;;;;0.98;0.90;;;;;;;;;;10156408;29;20756;-76
2024/01/26 01:11:14;;;;;;;1.58;1.15;;;;;;;;;;10154949;29;20052;-77
2024/01/26 01:16:20;;;;;;;1.42;1.05;;;;;;;;;;10155700;29;20060;-76
2024/01/26 01:21:23;;;;;;;1.10;0.80;;;;;;;;;;10151586;29;20044;-76
2024/01/26 01:26:27;;;;;;;1.73;0.90;;;;;;;;;;10151922;29;20143;-76
2024/01/26 01:31:32;;;;;;;1.92;0.98;;;;;;;;;;10148968;29;20052;-76
2024/01/26 01:36:35;;;;;;;0.82;0.82;;;;;;;;;;10152446;29;20091;-76
2024/01/26 01:41:39;;;;;;;1.05;0.95;;;;;;;;;;10154068;29;20081;-76
2024/01/26 01:46:44;;;;;;;1.23;0.90;;;;;;;;;;10153285;29;20056;-77
2024/01/26 01:51:51;;;;;;;1.05;0.95;;;;;;;;;;10155139;29;20044;-76
2024/01/26 01:56:56;;;;;;;0.80;0.80;;;;;;;;;;10157109;29;20076;-77
2024/01/26 02:02:01;;;;;;;1.67;0.90;;;;;;;;;;10144261;29;20464;-76
2024/01/26 02:07:06;;;;;;;0.90;0.90;;;;;;;;;;10149283;29;20060;-76
2024/01/26 02:12:09;;;;;;;0.77;0.77;;;;;;;;;;10140615;29;20111;-76
2024/01/26 02:17:14;;;;;;;1.48;1.20;;;;;;;;;;10149081;29;20052;-76
2024/01/26 02:22:17;;;;;;;1.10;1.00;;;;;;;;;;10146582;29;20088;-77
2024/01/26 02:27:22;;;;;;;1.10;1.00;;;;;;;;;;10145616;29;20139;-76
2024/01/26 02:32:25;;;;;;;0.98;0.80;;;;;;;;;;10150809;29;20605;-77
2024/01/26 02:37:29;;;;;;;1.10;1.00;;;;;;;;;;10156027;29;20058;-77
2024/01/26 02:42:34;;;;;;;1.05;0.90;;;;;;;;;;10149902;29;20052;-76
2024/01/26 02:47:37;;;;;;;0.80;0.80;;;;;;;;;;10150233;29;20044;-76
2024/01/26 02:52:40;;;;;;;0.70;0.70;;;;;;;;;;10147550;29;20096;-76
2024/01/26 02:57:45;;;;;;;1.15;0.70;;;;;;;;;;10154055;29;20082;-76
2024/01/26 03:02:48;;;;;;;0.82;0.60;;;;;;;;;;10150785;29;20056;-77
2024/01/26 03:07:52;;;;;;;1.90;1.00;;;;;;;;;;10143869;29;20052;-76
2024/01/26 03:12:56;;;;;;;1.15;1.02;;;;;;;;;;10141724;29;20055;-76
2024/01/26 03:18:00;;;;;;;1.10;0.90;;;;;;;;;;10140671;29;20131;-76
2024/01/26 03:23:04;;;;;;;1.20;1.02;;;;;;;;;;10149521;29;20055;-76
2024/01/26 03:28:11;;;;;;;1.23;0.98;;;;;;;;;;10142481;29;20072;-77
2024/01/26 03:33:14;;;;;;;1.13;0.65;;;;;;;;;;10149498;29;20052;-77
2024/01/26 03:38:18;;;;;;;1.58;0.60;;;;;;;;;;10147248;29;20127;-77
2024/01/26 03:43:23;;;;;;;0.60;0.60;;;;;;;;;;10138426;29;20525;-78
2024/01/26 03:48:26;;;;;;;0.40;0.40;;;;;;;;;;10140866;29;20069;-77
2024/01/26 03:53:29;;;;;;;0.90;0.70;;;;;;;;;;10144899;29;20064;-77
2024/01/26 03:58:34;;;;;;;1.77;0.60;;;;;;;;;;10147028;29;20452;-77
2024/01/26 04:03:38;;;;;;;0.50;0.50;;;;;;;;;;10147885;29;20056;-77
2024/01/26 04:08:41;;;;;;;0.43;0.43;;;;;;;;;;10142670;29;20047;-76
2024/01/26 04:13:46;;;;;;;0.47;0.47;;;;;;;;;;10137747;29;20048;-76
2024/01/26 04:18:49;;;;;;;0.63;0.52;;;;;;;;;;10150726;29;20056;-76
2024/01/26 04:23:53;;;;;;;1.73;0.50;;;;;;;;;;10149096;29;20056;-77
2024/01/26 04:28:58;;;;;;;0.52;0.52;;;;;;;;;;10159213;29;20096;-76
2024/01/26 04:34:01;;;;;;;0.93;0.50;;;;;;;;;;10155730;29;20063;-76
2024/01/26 04:39:05;;;;;;;0.47;0.47;;;;;;;;;;10157514;29;20050;-76
2024/01/26 04:44:09;;;;;;;0.50;0.50;;;;;;;;;;10150593;29;20066;-76
2024/01/26 04:49:13;;;;;;;0.40;0.40;;;;;;;;;;10151071;29;20064;-76
2024/01/26 04:54:17;;;;;;;0.60;0.40;;;;;;;;;;10151444;29;20047;-76
2024/01/26 04:59:22;;;;;;;0.40;0.38;;;;;;;;;;10151114;29;20568;-76
2024/01/26 05:04:25;;;;;;;0.52;0.50;;;;;;;;;;10153284;29;20084;-76
2024/01/26 05:09:29;;;;;;;1.00;0.90;;;;;;;;;;10150228;29;20052;-77
2024/01/26 05:14:35;;;;;;;0.60;0.60;;;;;;;;;;10154652;29;20102;-76
2024/01/26 05:19:39;;;;;;;0.55;0.50;;;;;;;;;;10153134;29;20052;-76
2024/01/26 05:24:42;;;;;;;1.10;0.50;;;;;;;;;;10146427;29;20694;-77
2024/01/26 05:29:47;;;;;;;0.50;0.50;;;;;;;;;;10152493;29;20131;-77
2024/01/26 05:34:50;;;;;;;0.52;0.45;;;;;;;;;;10154685;29;20052;-77
2024/01/26 05:39:54;;;;;;;0.40;0.40;;;;;;;;;;10154923;29;20049;-77
2024/01/26 05:44:59;;;;;;;0.50;0.50;;;;;;;;;;10145476;29;20057;-77
2024/01/26 05:50:03;;;;;;;0.70;0.60;;;;;;;;;;10148782;29;20063;-77
2024/01/26 05:55:07;;;;;;;0.65;0.65;;;;;;;;;;10146434;29;20488;-77
2024/01/26 06:00:13;;;;;;;0.70;0.70;;;;;;;;;;10144649;29;20056;-77
2024/01/26 06:05:18;;;;;;;0.70;0.60;;;;;;;;;;10145108;29;20039;-77
2024/01/26 06:10:22;;;;;;;0.50;0.50;;;;;;;;;;10151612;29;20131;-77
2024/01/26 06:15:26;;;;;;;0.63;0.52;;;;;;;;;;10153703;29;20040;-77
2024/01/26 06:20:31;;;;;;;0.40;0.40;;;;;;;;;;10162975;29;20056;-77
2024/01/26 06:25:34;;;;;;;0.52;0.40;;;;;;;;;;10158229;29;20139;-76
2024/01/26 06:30:39;;;;;;;0.70;0.70;;;;;;;;;;10160161;29;20103;-77
2024/01/26 06:35:43;;;;;;;0.88;0.80;;;;;;;;;;10146445;29;20108;-76
2024/01/26 06:40:47;;;;;;;0.60;0.60;;;;;;;;;;10155086;29;20052;-76
2024/01/26 06:45:52;;;;;;;0.80;0.63;;;;;;;;;;10150699;29;20095;-76
2024/01/26 06:50:55;;;;;;;1.10;1.00;;;;;;;;;;10142758;29;20492;-76
2024/01/26 06:55:58;;;;;;;1.10;1.00;;;;;;;;;;10148839;29;20543;-76
2024/01/26 07:01:03;;;;;;;1.20;1.00;;;;;;;;;;10150436;29;20100;-76
2024/01/26 07:06:07;;;;;;;2.10;1.50;;;;;;;;;;10142390;29;20045;-76
2024/01/26 07:11:10;;;;;;;2.03;1.55;;;;;;;;;;10136555;29;20052;-76
2024/01/26 07:16:15;;;;;;;3.22;1.50;;;;;;;;;;10145731;29;20055;-76
2024/01/26 07:21:20;;;;;;;1.85;1.30;;;;;;;;;;10145412;29;20055;-76
2024/01/26 07:26:24;;;;;;;1.30;1.20;;;;;;;;;;10147826;29;20577;-76
2024/01/26 07:31:28;;;;;;;2.40;1.48;;;;;;;;;;10138762;29;20044;-76
2024/01/26 07:36:36;;;;;;;3.50;1.50;;;;;;;;;;10151889;29;20059;-77
2024/01/26 07:41:40;;;;;;;1.15;1.05;;;;;;;;;;10147938;29;20056;-76
2024/01/26 07:46:45;;;;;;;2.88;1.42;;;;;;;;;;10146618;29;20056;-76
2024/01/26 07:51:48;;;;;;;1.25;1.00;;;;;;;;;;10150619;29;20052;-76
2024/01/26 07:56:51;;;;;;;3.10;1.10;;;;;;;;;;10151743;29;20055;-75
2024/01/26 08:01:56;;;;;;;2.03;1.25;;;;;;;;;;10157339;29;20052;-76
2024/01/26 08:07:00;;;;;;;1.80;1.10;;;;;;;;;;10147584;29;20048;-76
2024/01/26 08:12:04;;;;;;;1.08;0.80;;;;;;;;;;10150551;29;20044;-76
2024/01/26 08:17:09;;;;;;;1.02;0.90;;;;;;;;;;10150124;29;20045;-75
2024/01/26 08:22:13;;;;;;;1.00;0.80;;;;;;;;;;10151195;29;20064;-76
2024/01/26 08:27:16;;;;;;;1.20;0.80;;;;;;;;;;10146900;29;20071;-76
2024/01/26 08:32:21;;;;;;;2.33;1.00;;;;;;;;;;10151678;29;20155;-76
2024/01/26 08:37:24;;;;;;;0.80;0.68;;;;;;;;;;10153708;29;20059;-76
2024/01/26 08:42:28;;;;;;;0.82;0.82;;;;;;;;;;10147519;29;20052;-76
2024/01/26 08:47:32;;;;;;;0.70;0.70;;;;;;;;;;10156134;29;20497;-76
2024/01/26 08:52:36;;;;;;;0.88;0.82;;;;;;;;;;10150756;29;20459;-76
2024/01/26 08:57:39;;;;;;;1.25;1.00;;;;;;;;;;10146549;29;20049;-75
2024/01/26 09:02:45;;;;;;;1.45;0.88;;;;;;;;;;10147513;29;20056;-75
2024/01/26 09:07:48;;;;;;;2.28;1.40;;;;;;;;;;10147905;29;20496;-75
2024/01/26 09:12:51;;;;;;;1.35;1.15;;;;;;;;;;10148983;29;20051;-75
2024/01/26 09:17:56;;;;;;;0.80;0.73;;;;;;;;;;10145162;29;20104;-76
2024/01/26 09:23:00;;;;;;;2.10;0.80;;;;;;;;;;10145772;29;20059;-76
2024/01/26 09:28:03;;;;;;;1.48;0.90;;;;;;;;;;10152934;29;20496;-76
2024/01/26 09:33:08;;;;;;;1.58;0.90;;;;;;;;;;10149576;29;20339;-77
2024/01/26 09:38:11;;;;;;;3.72;0.90;;;;;;;;;;10145440;29;20049;-77
2024/01/26 09:43:15;;;;;;;1.42;0.73;;;;;;;;;;10150978;29;20378;-77
2024/01/26 09:48:20;;;;;;;0.60;0.60;;;;;;;;;;10145341;29;20049;-76
2024/01/26 09:53:24;;;;;;;0.80;0.70;;;;;;;;;;10142349;29;20052;-76
2024/01/26 09:58:28;;;;;;;0.60;0.60;;;;;;;;;;10141723;29;20051;-76
2024/01/26 10:03:33;;;;;;;1.20;0.80;;;;;;;;;;10143219;29;20097;-75
2024/01/26 10:08:40;;;;;;;1.00;0.50;;;;;;;;;;10143792;29;20578;-76
2024/01/26 10:13:44;;;;;;;0.60;0.52;;;;;;;;;;10144368;29;20100;-75
2024/01/26 10:18:48;;;;;;;0.55;0.47;;;;;;;;;;10143428;29;20067;-75
2024/01/26 10:23:52;;;;;;;0.68;0.52;;;;;;;;;;10133597;29;20045;-75
2024/01/26 10:28:57;;;;;;;0.63;0.38;;;;;;;;;;10141331;29;20052;-75
2024/01/26 10:34:03;;;;;;;0.95;0.70;;;;;;;;;;10145992;29;20055;-75
2024/01/26 10:39:08;;;;;;;0.55;0.55;;;;;;;;;;10148640;29;20052;-75
2024/01/26 10:44:12;;;;;;;0.32;0.32;;;;;;;;;;10143984;29;20055;-75
2024/01/26 10:49:16;;;;;;;0.40;0.40;;;;;;;;;;10142099;29;20060;-75
2024/01/26 10:54:23;;;;;;;1.10;0.45;;;;;;;;;;10145118;29;20056;-75
2024/01/26 10:59:27;;;;;;;0.40;0.40;;;;;;;;;;10151744;29;20052;-75
2024/01/26 11:04:32;;;;;;;0.50;0.50;;;;;;;;;;10141233;29;20071;-75
2024/01/26 11:09:38;;;;;;;0.40;0.40;;;;;;;;;;10166224;23;20527;-74
2024/01/26 11:14:42;;;;;;;0.43;0.40;;;;;;;;;;10158845;28;20044;-74
2024/01/26 11:19:50;;;;;;;0.40;0.40;;;;;;;;;;10159401;29;20693;-74
2024/01/26 11:24:58;;;;;;;0.63;0.47;;;;;;;;;;10157024;29;20091;-76
2024/01/26 11:30:01;;;;;;;0.60;0.45;;;;;;;;;;10155835;29;20052;-76
2024/01/26 11:35:09;;;;;;;0.30;0.30;;;;;;;;;;10158371;29;20135;-76
2024/01/26 11:40:13;;;;;;;0.50;0.40;;;;;;;;;;10158735;29;20084;-76
2024/01/26 11:45:37;;;;;;;0.40;0.38;;;;;;;;;;10157806;29;20040;-76
2024/01/26 11:50:43;;;;;;;0.38;0.38;;;;;;;;;;10159433;29;20056;-76
2024/01/26 11:55:47;;;;;;;0.30;0.30;;;;;;;;;;10157100;29;20044;-76
2024/01/26 12:00:50;;;;;;;0.50;0.40;;;;;;;;;;10145060;29;20520;-76
2024/01/26 12:05:55;;;;;;;0.32;0.32;;;;;;;;;;10158114;29;20150;-76
2024/01/26 12:10:59;;;;;;;0.38;0.38;;;;;;;;;;10155770;29;20202;-76
2024/01/26 12:16:03;;;;;;;0.68;0.40;;;;;;;;;;10155378;29;20683;-76
2024/01/26 12:21:09;;;;;;;1.05;0.40;;;;;;;;;;10158818;29;20516;-76
2024/01/26 12:26:14;;;;;;;0.88;0.63;;;;;;;;;;10152164;29;20044;-76
2024/01/26 12:31:18;;;;;;;0.83;0.73;;;;;;;;;;10151849;29;20055;-76
2024/01/26 12:36:28;;;;;;;0.82;0.50;;;;;;;;;;10154466;28;20131;-76
2024/01/26 12:41:32;;;;;;;1.23;0.50;;;;;;;;;;10168917;29;20048;-76
2024/01/26 12:46:36;;;;;;;0.38;0.38;;;;;;;;;;10164392;29;20047;-76
2024/01/26 12:51:41;;;;;;;0.50;0.35;;;;;;;;;;10163313;29;20052;-76
2024/01/26 12:56:45;;;;;;;0.40;0.30;;;;;;;;;;10160735;29;20456;-76
2024/01/26 13:01:48;;;;;;;1.63;0.90;;;;;;;;;;10163001;29;20052;-76
2024/01/26 13:06:53;;;;;;;2.92;0.90;;;;;;;;;;10162450;29;20056;-76
2024/01/26 13:11:59;;;;;;;2.83;0.93;;;;;;;;;;10158375;29;20057;-76
2024/01/26 13:17:04;;;;;;;3.95;0.82;;;;;;;;;;10159701;29;20426;-76
2024/01/26 13:22:08;;;;;;;3.58;1.10;;;;;;;;;;10159627;29;20052;-76
2024/01/26 13:27:13;;;;;;;4.47;1.10;;;;;;;;;;10161508;29;20067;-76
2024/01/26 13:32:16;;;;;;;4.15;1.17;;;;;;;;;;10156218;28;20491;-74
2024/01/26 13:37:21;;;;;;;4.30;1.20;;;;;;;;;;10157338;29;20412;-74
2024/01/26 13:42:24;;;;;;;2.92;1.20;;;;;;;;;;10161438;29;20055;-76
2024/01/26 13:47:28;;;;;;;5.63;1.52;;;;;;;;;;10161057;29;20388;-76
2024/01/26 13:52:33;;;;;;;4.90;1.63;;;;;;;;;;10152276;29;20046;-76
2024/01/26 13:57:37;;;;;;;3.03;1.20;;;;;;;;;;10160937;29;20052;-76
2024/01/26 14:02:40;;;;;;;2.90;1.40;;;;;;;;;;10156951;29;20060;-76
2024/01/26 14:07:45;;;;;;;7.07;1.65;;;;;;;;;;10161795;29;20715;-75
2024/01/26 14:12:48;;;;;;;3.80;1.23;;;;;;;;;;10160280;29;20055;-76
2024/01/26 14:17:52;;;;;;;4.97;1.27;;;;;;;;;;10157154;29;20048;-75
2024/01/26 14:22:59;;;;;;;3.85;1.20;;;;;;;;;;10162688;29;20080;-76
2024/01/26 14:28:03;;;;;;;2.83;1.40;;;;;;;;;;10154221;29;20059;-75
2024/01/26 14:33:07;;;;;;;5.70;1.50;;;;;;;;;;10156519;29;20111;-76
2024/01/26 14:38:13;;;;;;;5.93;1.40;;;;;;;;;;10161100;29;20070;-76
2024/01/26 14:43:16;;;;;;;;;;;;;;;;;;10165070;29;20095;-75
2024/01/26 14:48:20;;;;;;;2.90;0.80;;;;;;;;;;10156204;29;20192;-75
2024/01/26 14:53:25;;;;;;;3.28;1.08;;;;;;;;;;10151348;29;20122;-75
2024/01/26 14:58:30;;;;;;;2.63;1.00;;;;;;;;;;10150147;29;20732;-75
2024/01/26 15:03:36;;;;;;;2.72;1.45;;;;;;;;;;10150088;29;20100;-75
2024/01/26 15:08:41;;;;;;;3.45;1.00;;;;;;;;;;10158545;29;20051;-76
2024/01/26 15:13:45;;;;;;;2.00;1.10;;;;;;;;;;10158672;29;20619;-75
2024/01/26 15:18:48;;;;;;;2.28;0.88;;;;;;;;;;10153619;29;20129;-75
2024/01/26 15:23:53;;;;;;;4.53;1.00;;;;;;;;;;10159819;29;20056;-75
2024/01/26 15:28:56;;;;;;;2.88;1.08;;;;;;;;;;10158494;29;20044;-75
2024/01/26 15:33:59;;;;;;;4.22;0.98;;;;;;;;;;10157963;29;20123;-75
2024/01/26 15:39:04;;;;;;;4.28;1.02;;;;;;;;;;10156519;29;20415;-75
2024/01/26 15:44:09;;;;;;;2.78;1.27;;;;;;;;;;10154008;29;20148;-75
2024/01/26 15:49:12;;;;;;;5.20;1.48;;;;;;;;;;10154524;29;20055;-75
2024/01/26 15:54:16;;;;;;;2.95;0.90;;;;;;;;;;10158610;29;20524;-75
2024/01/26 15:59:20;;;;;;;3.03;1.17;;;;;;;;;;10157438;29;20056;-75
2024/01/26 16:04:23;;;;;;;4.80;1.25;;;;;;;;;;10156012;29;20416;-76
2024/01/26 16:09:28;;;;;;;8.50;1.58;;;;;;;;;;10156202;29;20048;-75
2024/01/26 16:14:31;;;;;;;4.03;1.60;;;;;;;;;;10157533;29;20066;-76
2024/01/26 16:19:34;;;;;;;6.07;1.35;;;;;;;;;;10164065;29;20054;-75
2024/01/26 16:24:39;;;;;;;3.55;1.65;;;;;;;;;;10158713;29;20059;-76
2024/01/26 16:29:42;;;;;;;3.85;1.55;;;;;;;;;;10162982;29;20075;-76
2024/01/26 16:34:46;;;;;;;6.57;1.77;;;;;;;;;;10164622;29;20044;-75
2024/01/26 16:39:50;;;;;;;4.70;1.63;;;;;;;;;;10164592;29;20056;-75
2024/01/26 16:44:53;;;;;;;6.80;1.52;;;;;;;;;;10162140;29;20055;-75
2024/01/26 16:49:57;;;;;;;3.97;1.40;;;;;;;;;;10154967;29;20040;-75
2024/01/26 16:55:01;;;;;;;4.82;1.75;;;;;;;;;;10162164;29;20121;-75
2024/01/26 17:00:06;;;;;;;7.88;4.15;;;;;;;;;;10162346;29;20131;-75
2024/01/26 17:05:09;;;;;;;12.27;7.00;;;;;;;;;;10159772;29;20717;-75
2024/01/26 17:10:14;;;;;;;27.55;11.48;;;;;;;;;;10183251;23;20155;-75
2024/01/26 17:15:17;;;;;;;23.42;12.98;;;;;;;;;;10188305;28;20059;-75
2024/01/26 17:20:20;;;;;;;24.50;14.55;;;;;;;;;;10194911;29;20554;-75
2024/01/26 17:25:26;;;;;;;22.13;14.73;;;;;;;;;;10196248;29;20056;-75
2024/01/26 17:30:29;;;;;;;7.65;3.60;;;;;;;;;;10185850;29;20131;-75
2024/01/26 17:35:32;;;;;;;7.95;4.30;;;;;;;;;;10195321;28;20051;-75
2024/01/26 17:40:37;;;;;;;5.65;3.80;;;;;;;;;;10187514;28;20044;-75
2024/01/26 17:45:40;;;;;;;5.63;1.83;;;;;;;;;;10186699;29;20612;-75
2024/01/26 17:50:44;;;;;;;6.15;2.22;;;;;;;;;;10184716;29;20040;-75
2024/01/26 17:55:48;;;;;;;6.10;2.05;;;;;;;;;;10187041;28;20419;-75
2024/01/26 18:00:51;;;;;;;6.53;2.33;;;;;;;;;;10196655;29;20078;-75
2024/01/26 18:05:55;;;;;;;3.65;1.30;;;;;;;;;;10191780;29;20051;-75
2024/01/26 18:11:03;;;;;;;3.42;1.30;;;;;;;;;;10199030;29;20071;-75
2024/01/26 18:16:08;;;;;;;5.05;1.52;;;;;;;;;;10193505;29;20044;-75
2024/01/26 18:21:12;;;;;;;3.45;1.73;;;;;;;;;;10185997;29;20067;-75
2024/01/26 18:26:17;;;;;;;5.25;1.63;;;;;;;;;;10196685;29;20062;-75
2024/01/26 18:31:20;;;;;;;6.82;2.08;;;;;;;;;;10186297;29;20499;-75
2024/01/26 18:36:23;;;;;;;7.95;2.50;;;;;;;;;;10191865;29;20051;-75
2024/01/26 18:41:30;;;;;;;5.90;2.03;;;;;;;;;;10188994;29;20040;-75
2024/01/26 18:46:33;;;;;;;;;;;;;;;;;;10178167;29;20119;-75
2024/01/26 18:51:36;;;;;;;6.93;2.10;;;;;;;;;;10191579;28;19962;-75
2024/01/26 18:56:41;;;;;;;7.75;2.47;;;;;;;;;;10189814;29;20058;-75
2024/01/26 19:01:45;;;;;;;5.93;2.08;;;;;;;;;;10189247;28;20040;-75
2024/01/26 19:06:48;;;;;;;6.25;1.85;;;;;;;;;;10186068;29;20056;-75
2024/01/26 19:11:53;;;;;;;6.38;2.05;;;;;;;;;;10188041;29;20456;-75
2024/01/26 19:16:56;;;;;;;5.03;1.83;;;;;;;;;;10187318;29;20103;-75
2024/01/26 19:21:59;;;;;;;5.65;2.15;;;;;;;;;;10180314;29;20044;-75
2024/01/26 19:27:04;;;;;;;7.55;2.15;;;;;;;;;;10185276;29;20056;-75
2024/01/26 19:32:08;;;;;;;6.72;2.92;;;;;;;;;;10191399;29;20535;-75
2024/01/26 19:37:11;;;;;;;7.85;3.80;;;;;;;;;;10190115;29;20531;-75
2024/01/26 19:42:15;;;;;;;6.55;4.63;;;;;;;;;;10187571;29;20062;-75
2024/01/26 19:47:20;;;;;;;8.00;3.83;;;;;;;;;;10189767;29;20054;-75
2024/01/26 19:52:23;;;;;;;5.72;2.33;;;;;;;;;;10205053;29;20048;-75
2024/01/26 19:57:28;;;;;;;6.78;1.90;;;;;;;;;;10208941;29;20047;-75
2024/01/26 20:02:31;;;;;;;4.95;1.60;;;;;;;;;;10202361;29;20044;-75
2024/01/26 20:07:34;;;;;;;5.88;1.80;;;;;;;;;;10194107;29;20499;-75
2024/01/26 20:12:39;;;;;;;5.93;1.30;;;;;;;;;;10200849;29;20054;-75
2024/01/26 20:17:43;;;;;;;6.50;1.80;;;;;;;;;;10197037;29;20066;-75
2024/01/26 20:22:46;;;;;;;5.78;1.50;;;;;;;;;;10195530;29;20035;-75
2024/01/26 20:27:50;;;;;;;3.90;1.40;;;;;;;;;;10196021;29;20419;-75
2024/01/26 20:32:54;;;;;;;5.90;1.73;;;;;;;;;;10191639;29;20060;-75
2024/01/26 20:37:57;;;;;;;4.20;1.70;;;;;;;;;;10193229;29;20499;-75
2024/01/26 20:43:03;;;;;;;6.30;1.92;;;;;;;;;;10199139;29;20560;-75
2024/01/26 20:48:08;;;;;;;4.13;1.23;;;;;;;;;;10193014;29;20410;-76
2024/01/26 20:53:11;;;;;;;5.90;1.50;;;;;;;;;;10204236;29;20087;-75
2024/01/26 20:58:16;;;;;;;6.40;1.83;;;;;;;;;;10196099;29;20069;-75
2024/01/26 21:03:19;;;;;;;9.38;1.88;;;;;;;;;;10189541;29;20075;-75
2024/01/26 21:08:23;;;;;;;8.13;1.88;;;;;;;;;;10188138;29;20144;-75
2024/01/26 21:13:27;;;;;;;8.57;2.00;;;;;;;;;;10190133;29;20062;-75
2024/01/26 21:18:31;;;;;;;6.07;2.08;;;;;;;;;;10186886;29;20134;-75
2024/01/26 21:23:34;;;;;;;6.13;1.85;;;;;;;;;;10186227;29;20047;-75
2024/01/26 21:28:39;;;;;;;5.43;1.67;;;;;;;;;;10187682;28;20048;-75
2024/01/26 21:33:42;;;;;;;5.40;1.60;;;;;;;;;;10187722;29;20048;-75
2024/01/26 21:38:46;;;;;;;6.70;1.73;;;;;;;;;;10191702;28;20055;-75
2024/01/26 21:43:56;;;;;;;5.78;1.88;;;;;;;;;;10183194;28;20531;-75
2024/01/26 21:48:59;;;;;;;4.75;1.58;;;;;;;;;;10192221;29;20048;-75
2024/01/26 21:54:02;;;;;;;3.63;1.25;;;;;;;;;;10187479;29;20643;-75
2024/01/26 21:59:07;;;;;;;9.95;2.28;;;;;;;;;;10183888;29;20083;-75
2024/01/26 22:04:10;;;;;;;4.75;1.50;;;;;;;;;;10186915;28;20055;-75
2024/01/26 22:09:15;;;;;;;6.15;1.73;;;;;;;;;;10189007;28;20054;-75
2024/01/26 22:14:19;;;;;;;8.10;2.33;;;;;;;;;;10187745;29;20048;-75
2024/01/26 22:19:22;;;;;;;4.93;1.48;;;;;;;;;;10183139;29;20039;-75
2024/01/26 22:24:26;;;;;;;3.78;1.23;;;;;;;;;;10185788;29;20071;-75
2024/01/26 22:29:30;;;;;;;5.60;1.30;;;;;;;;;;10189796;29;20055;-75
2024/01/26 22:34:33;;;;;;;5.22;1.30;;;;;;;;;;10188034;29;20052;-75
2024/01/26 22:39:37;;;;;;;2.42;1.00;;;;;;;;;;10195675;29;20086;-75
2024/01/26 22:44:41;;;;;;;3.25;1.20;;;;;;;;;;10190321;29;20059;-75
2024/01/26 22:49:44;;;;;;;4.68;1.30;;;;;;;;;;10190884;29;20124;-75
2024/01/26 22:54:48;;;;;;;2.92;1.02;;;;;;;;;;10193373;29;20489;-75
2024/01/26 22:59:52;;;;;;;4.22;1.30;;;;;;;;;;10194910;29;20536;-75
2024/01/26 23:04:55;;;;;;;2.63;1.13;;;;;;;;;;10193250;29;20393;-75
2024/01/26 23:09:59;;;;;;;5.60;1.17;;;;;;;;;;10206472;23;20503;-75
2024/01/26 23:15:04;;;;;;;4.72;1.50;;;;;;;;;;10183616;28;20060;-76
2024/01/26 23:20:08;;;;;;;5.18;1.23;;;;;;;;;;10150628;29;20725;-75
2024/01/26 23:25:11;;;;;;;3.42;1.45;;;;;;;;;;10132420;29;20143;-75
2024/01/26 23:30:15;;;;;;;6.60;1.50;;;;;;;;;;10133014;29;20562;-75
2024/01/26 23:35:19;;;;;;;5.70;1.67;;;;;;;;;;10145393;29;20068;-75
2024/01/26 23:40:22;;;;;;;3.85;1.17;;;;;;;;;;10144129;29;20139;-75
2024/01/26 23:45:27;;;;;;;3.88;1.10;;;;;;;;;;10139065;29;20056;-75
2024/01/26 23:50:31;;;;;;;4.40;1.08;;;;;;;;;;10136170;29;20056;-75
2024/01/26 23:55:34;;;;;;;3.00;1.10;;;;;;;;;;10145342;29;20126;-75
